createdAt,value
2023-02-02T00:00:18.578Z,1.77
2023-02-02T00:06:20.896Z,1.45
2023-02-02T00:12:22.327Z,1.60
2023-02-02T00:18:23.803Z,1.67
2023-02-02T00:24:25.476Z,2.00
2023-02-02T00:30:26.966Z,1.97
2023-02-02T00:36:28.490Z,1.40
2023-02-02T00:42:29.988Z,1.83
2023-02-02T00:48:31.582Z,1.33
2023-02-02T00:54:33.067Z,1.58
2023-02-02T01:00:34.563Z,1.67
2023-02-02T01:06:36.217Z,1.20
2023-02-02T01:12:37.772Z,1.57
2023-02-02T01:18:40.216Z,1.25
2023-02-02T01:24:41.989Z,1.27
2023-02-02T01:30:43.467Z,1.30
2023-02-02T01:36:44.965Z,1.00
2023-02-02T01:42:46.430Z,1.40
2023-02-02T01:48:49.296Z,1.33
2023-02-02T01:54:52.557Z,1.20
2023-02-02T02:00:54.479Z,1.47
2023-02-02T02:06:56.258Z,1.48
2023-02-02T02:12:57.943Z,1.13
2023-02-02T02:19:08.453Z,1.17
2023-02-02T02:25:32.361Z,1.33
2023-02-02T02:31:34.973Z,1.30
2023-02-02T02:37:46.690Z,1.35
2023-02-02T02:43:51.927Z,1.37
2023-02-02T02:49:53.583Z,0.90
2023-02-02T02:56:02.140Z,1.00
2023-02-02T03:02:29.059Z,1.00
2023-02-02T03:08:32.753Z,1.08
2023-02-02T03:14:35.330Z,1.00
2023-02-02T03:20:36.815Z,1.25
2023-02-02T03:26:38.328Z,1.10
2023-02-02T03:32:40.160Z,1.40
2023-02-02T03:38:41.619Z,1.35
2023-02-02T03:44:43.064Z,1.30
2023-02-02T03:50:44.529Z,1.10
2023-02-02T03:56:45.965Z,1.00
2023-02-02T04:02:47.415Z,1.13
2023-02-02T04:08:48.915Z,1.30
2023-02-02T04:14:50.367Z,0.90
2023-02-02T04:20:56.037Z,1.13
2023-02-02T04:26:57.511Z,1.00
2023-02-02T04:32:58.950Z,1.40
2023-02-02T04:39:00.399Z,1.40
2023-02-02T04:45:01.914Z,1.30
2023-02-02T04:51:05.378Z,0.90
2023-02-02T04:57:06.909Z,1.13
2023-02-02T05:03:08.367Z,1.10
2023-02-02T05:09:10.512Z,0.82
2023-02-02T05:15:11.999Z,1.03
2023-02-02T05:21:13.486Z,1.23
2023-02-02T05:27:15.037Z,0.90
2023-02-02T05:33:18.639Z,0.83
2023-02-02T05:39:20.126Z,1.30
2023-02-02T05:45:22.262Z,1.30
2023-02-02T05:51:25.440Z,1.30
2023-02-02T05:57:27.945Z,2.15
2023-02-02T06:03:29.537Z,1.00
2023-02-02T06:09:31.090Z,1.05
2023-02-02T06:15:33.101Z,0.93
2023-02-02T06:21:34.699Z,1.75
2023-02-02T06:27:36.160Z,1.08
2023-02-02T06:33:37.858Z,1.20
2023-02-02T06:39:39.400Z,1.83
2023-02-02T06:45:40.845Z,1.33
2023-02-02T06:51:42.319Z,1.25
2023-02-02T06:57:43.816Z,0.82
2023-02-02T07:03:48.183Z,0.90
2023-02-02T07:09:58.363Z,0.95
2023-02-02T07:16:00.293Z,1.27
2023-02-02T07:22:01.803Z,1.25
2023-02-02T07:28:03.377Z,2.00
2023-02-02T07:34:04.970Z,1.27
2023-02-02T07:40:07.654Z,0.93
2023-02-02T07:46:10.133Z,1.27
2023-02-02T07:52:11.671Z,1.42
2023-02-02T07:58:13.123Z,1.13
2023-02-02T08:04:15.604Z,0.97
2023-02-02T08:10:17.185Z,1.00
2023-02-02T08:16:19.207Z,1.77
2023-02-02T08:22:20.674Z,1.20
2023-02-02T08:28:22.197Z,1.25
2023-02-02T08:34:23.746Z,1.17
2023-02-02T08:40:25.482Z,1.10
2023-02-02T08:46:27.399Z,1.67
2023-02-02T08:52:28.939Z,1.20
2023-02-02T08:58:30.825Z,1.35
2023-02-02T09:04:32.338Z,1.60
2023-02-02T09:10:38.537Z,1.70
2023-02-02T09:16:40.234Z,1.03
2023-02-02T09:22:41.964Z,4.07
2023-02-02T09:28:44.441Z,4.07
2023-02-02T09:34:45.880Z,2.13
2023-02-02T09:40:47.410Z,2.22
2023-02-02T09:46:51.715Z,1.80
2023-02-02T09:52:56.155Z,1.80
2023-02-02T09:59:10.197Z,1.60
2023-02-02T10:05:22.142Z,1.90
2023-02-02T10:11:36.221Z,1.48
2023-02-02T10:17:44.199Z,1.97
2023-02-02T10:23:45.894Z,2.03
2023-02-02T10:29:58.376Z,1.40
2023-02-02T10:36:02.793Z,1.87
2023-02-02T10:42:09.873Z,1.70
2023-02-02T10:48:16.551Z,1.87
2023-02-02T10:54:34.636Z,1.60
2023-02-02T11:00:51.375Z,1.70
2023-02-02T11:06:52.879Z,1.40
2023-02-02T11:12:57.057Z,1.63
2023-02-02T11:18:58.675Z,1.47
2023-02-02T11:25:02.033Z,1.83
2023-02-02T11:31:03.714Z,1.75
2023-02-02T11:37:19.972Z,1.50
2023-02-02T11:43:33.239Z,1.65
2023-02-02T11:49:41.753Z,1.80
2023-02-02T11:55:43.341Z,1.40
2023-02-02T12:01:45.146Z,1.70
2023-02-02T12:07:47.703Z,1.63
2023-02-02T12:13:52.941Z,1.90
2023-02-02T12:19:59.947Z,2.37
2023-02-02T12:26:05.360Z,2.00
2023-02-02T12:32:25.768Z,1.52
2023-02-02T12:39:01.644Z,1.20
2023-02-02T12:45:11.857Z,1.42
2023-02-02T12:51:19.221Z,1.60
2023-02-02T12:57:29.622Z,2.10
2023-02-02T13:03:36.111Z,1.70
2023-02-02T13:09:42.271Z,1.23
2023-02-02T13:15:48.555Z,1.75
2023-02-02T13:21:51.112Z,1.47
2023-02-02T13:27:53.259Z,1.10
2023-02-02T13:34:12.951Z,1.10
2023-02-02T13:40:24.653Z,1.27
2023-02-02T13:46:30.842Z,1.02
2023-02-02T13:52:44.982Z,1.43
2023-02-02T13:58:46.449Z,1.38
2023-02-02T14:04:52.536Z,1.48
2023-02-02T14:10:53.951Z,1.50
2023-02-02T14:16:56.639Z,1.50
2023-02-02T14:22:58.250Z,1.80
2023-02-02T14:28:59.694Z,1.63
2023-02-02T14:35:24.679Z,1.58
2023-02-02T14:41:50.810Z,1.40
2023-02-02T14:47:53.478Z,1.90
2023-02-02T14:53:58.217Z,1.83
2023-02-02T15:00:01.879Z,1.80
2023-02-02T15:06:14.052Z,1.60
2023-02-02T15:12:27.127Z,1.60
2023-02-02T15:18:33.426Z,2.05
2023-02-02T15:24:36.043Z,1.37
2023-02-02T15:30:41.009Z,2.20
2023-02-02T15:36:43.750Z,1.30
2023-02-02T15:43:06.223Z,1.70
2023-02-02T15:49:36.059Z,1.85
2023-02-02T15:55:38.043Z,1.80
2023-02-02T16:01:46.163Z,1.95
2023-02-02T16:07:59.736Z,1.80
2023-02-02T16:14:13.947Z,1.60
2023-02-02T16:20:17.930Z,1.90
2023-02-02T16:26:21.655Z,1.50
2023-02-02T16:32:29.226Z,1.63
2023-02-02T16:38:32.295Z,1.58
2023-02-02T16:44:42.872Z,2.10
2023-02-02T16:51:02.186Z,1.80
2023-02-02T16:57:04.385Z,1.63
2023-02-02T17:03:07.897Z,2.22
2023-02-02T17:09:16.482Z,2.63
2023-02-02T17:15:17.986Z,2.00
2023-02-02T17:21:24.176Z,2.60
2023-02-02T17:27:33.761Z,2.40
2023-02-02T17:33:35.880Z,2.13
2023-02-02T17:39:37.393Z,1.90
2023-02-02T17:45:39.110Z,1.93
2023-02-02T17:51:43.727Z,2.25
2023-02-02T17:57:47.176Z,2.50
2023-02-02T18:03:48.850Z,2.20
2023-02-02T18:09:50.304Z,2.10
2023-02-02T18:15:52.412Z,2.10
2023-02-02T18:21:53.894Z,2.00
2023-02-02T18:27:57.367Z,2.50
2023-02-02T18:33:59.054Z,2.00
2023-02-02T18:40:00.609Z,2.10
2023-02-02T18:46:04.535Z,2.27
2023-02-02T18:52:06.069Z,2.15
2023-02-02T18:58:10.568Z,2.60
2023-02-02T19:04:12.115Z,3.17
2023-02-02T19:10:13.793Z,3.53
2023-02-02T19:16:21.348Z,3.33
2023-02-02T19:22:24.444Z,3.08
2023-02-02T19:28:28.165Z,3.07
2023-02-02T19:34:31.895Z,3.08
2023-02-02T19:40:33.595Z,2.78
2023-02-02T19:46:41.922Z,2.57
2023-02-02T19:52:43.656Z,2.80
2023-02-02T19:58:45.465Z,2.60
2023-02-02T20:04:47.071Z,2.08
2023-02-02T20:10:48.995Z,2.30
2023-02-02T20:16:52.158Z,1.80
2023-02-02T20:22:54.302Z,1.90
2023-02-02T20:28:57.339Z,1.70
2023-02-02T20:34:59.043Z,1.63
2023-02-02T20:41:02.344Z,1.55
2023-02-02T20:47:04.551Z,1.67
2023-02-02T20:53:06.392Z,2.05
2023-02-02T20:59:07.993Z,1.80
2023-02-02T21:05:09.562Z,1.98
2023-02-02T21:11:11.510Z,2.67
2023-02-02T21:17:15.520Z,2.37
2023-02-02T21:23:18.162Z,2.22
2023-02-02T21:29:19.720Z,2.93
2023-02-02T21:35:21.271Z,2.67
2023-02-02T21:41:22.804Z,2.92
2023-02-02T21:47:34.946Z,2.53
2023-02-02T21:53:36.489Z,2.53
2023-02-02T21:59:38.128Z,2.40
2023-02-02T22:05:39.705Z,2.22
2023-02-02T22:12:01.467Z,1.95
2023-02-02T22:18:12.958Z,2.33
2023-02-02T22:24:14.888Z,2.10
2023-02-02T22:30:28.633Z,2.50
2023-02-02T22:36:30.301Z,1.95
2023-02-02T22:42:31.745Z,2.00
2023-02-02T22:48:33.224Z,1.73
2023-02-02T22:54:34.758Z,1.83
2023-02-02T23:00:37.596Z,1.53
2023-02-02T23:06:39.069Z,1.30
2023-02-02T23:12:41.144Z,1.23
2023-02-02T23:18:42.664Z,1.23
2023-02-02T23:24:44.476Z,1.23
2023-02-02T23:30:46.053Z,1.00
2023-02-02T23:36:47.550Z,1.30
2023-02-02T23:42:49.053Z,0.90
2023-02-02T23:48:50.576Z,0.97
2023-02-02T23:54:52.762Z,1.50
